createdAt,value
2022-07-31T00:00:27.113Z,58.88
2022-07-31T00:03:07.826Z,60.34
2022-07-31T00:05:38.651Z,64.81
2022-07-31T00:08:10.694Z,63.35
2022-07-31T00:10:38.729Z,57.47
2022-07-31T00:13:06.733Z,56.50
2022-07-31T00:15:34.574Z,58.14
2022-07-31T00:18:02.342Z,60.22
2022-07-31T00:20:30.407Z,64.29
2022-07-31T00:22:58.165Z,63.01
2022-07-31T00:25:26.236Z,57.23
2022-07-31T00:27:54.305Z,56.34
2022-07-31T00:30:22.191Z,58.25
2022-07-31T00:32:51.775Z,60.34
2022-07-31T00:35:19.883Z,64.26
2022-07-31T00:37:47.933Z,62.69
2022-07-31T00:40:17.922Z,57.42
2022-07-31T00:42:46.272Z,56.81
2022-07-31T00:45:14.120Z,58.51
2022-07-31T00:47:42.735Z,60.52
2022-07-31T00:50:12.104Z,64.43
2022-07-31T00:52:40.188Z,63.07
2022-07-31T00:55:08.817Z,57.76
2022-07-31T00:57:37.040Z,56.84
2022-07-31T01:00:05.951Z,58.59
2022-07-31T01:02:33.783Z,60.54
2022-07-31T01:05:01.764Z,64.61
2022-07-31T01:07:29.940Z,63.24
2022-07-31T01:09:59.425Z,57.44
2022-07-31T01:12:38.680Z,56.48
2022-07-31T01:15:09.416Z,58.30
2022-07-31T01:17:40.080Z,60.39
2022-07-31T01:20:08.935Z,64.27
2022-07-31T01:23:18.117Z,62.75
2022-07-31T01:26:01.162Z,56.84
2022-07-31T01:28:59.883Z,57.27
2022-07-31T01:31:45.577Z,59.48
2022-07-31T01:34:37.992Z,61.76
2022-07-31T01:37:20.875Z,66.29
2022-07-31T01:39:54.762Z,62.80
2022-07-31T01:42:26.207Z,57.21
2022-07-31T01:44:58.170Z,56.58
2022-07-31T01:47:28.198Z,58.43
2022-07-31T01:49:58.700Z,60.39
2022-07-31T01:52:29.578Z,64.33
2022-07-31T01:54:59.369Z,62.87
2022-07-31T01:57:29.643Z,57.30
2022-07-31T02:00:02.121Z,56.60
2022-07-31T02:02:31.172Z,58.31
2022-07-31T02:04:59.545Z,60.33
2022-07-31T02:07:29.658Z,61.98
2022-07-31T02:09:59.301Z,66.24
2022-07-31T02:12:32.159Z,64.00
2022-07-31T02:15:07.756Z,60.44
2022-07-31T02:17:36.787Z,55.18
2022-07-31T02:20:08.082Z,54.98
2022-07-31T02:22:36.220Z,56.95
2022-07-31T02:25:06.275Z,59.01
2022-07-31T02:27:53.562Z,60.41
2022-07-31T02:30:26.546Z,64.50
2022-07-31T02:32:55.077Z,62.82
2022-07-31T02:35:23.978Z,56.86
2022-07-31T02:37:55.877Z,56.01
2022-07-31T02:40:25.820Z,58.03
2022-07-31T02:42:55.255Z,59.74
2022-07-31T02:45:23.606Z,61.45
2022-07-31T02:47:51.800Z,64.96
2022-07-31T02:50:20.258Z,63.66
2022-07-31T02:52:48.615Z,58.22
2022-07-31T02:55:18.602Z,57.32
2022-07-31T02:57:48.312Z,58.70
2022-07-31T03:00:22.758Z,60.41
2022-07-31T03:02:51.416Z,64.27
2022-07-31T03:05:19.744Z,62.88
2022-07-31T03:07:48.308Z,57.45
2022-07-31T03:10:16.556Z,57.10
2022-07-31T03:12:47.826Z,58.29
2022-07-31T03:15:17.869Z,60.04
2022-07-31T03:17:48.095Z,63.92
2022-07-31T03:20:16.725Z,62.51
2022-07-31T03:22:45.557Z,57.32
2022-07-31T03:25:21.641Z,56.49
2022-07-31T03:27:56.265Z,57.77
2022-07-31T03:30:25.444Z,59.60
2022-07-31T03:32:55.001Z,61.17
2022-07-31T03:35:24.647Z,65.68
2022-07-31T03:37:52.644Z,63.26
2022-07-31T03:40:20.503Z,57.53
2022-07-31T03:42:50.058Z,56.36
2022-07-31T03:45:19.424Z,58.04
2022-07-31T03:47:47.596Z,59.91
2022-07-31T03:50:16.179Z,61.62
2022-07-31T03:52:46.677Z,64.21
2022-07-31T03:55:14.702Z,63.80
2022-07-31T03:57:43.533Z,57.83
2022-07-31T04:00:17.038Z,56.56
2022-07-31T04:02:46.115Z,57.99
2022-07-31T04:05:14.444Z,59.76
2022-07-31T04:07:42.296Z,64.09
2022-07-31T04:10:10.867Z,63.14
2022-07-31T04:12:39.501Z,57.28
2022-07-31T04:15:07.954Z,56.45
2022-07-31T04:17:37.150Z,58.26
2022-07-31T04:20:06.151Z,60.27
2022-07-31T04:22:34.116Z,64.06
2022-07-31T04:25:04.859Z,62.74
2022-07-31T04:27:32.601Z,57.18
2022-07-31T04:30:00.316Z,56.38
2022-07-31T04:32:28.305Z,57.94
2022-07-31T04:34:56.140Z,59.66
2022-07-31T04:37:23.912Z,61.23
2022-07-31T04:39:51.621Z,64.94
2022-07-31T04:42:19.377Z,63.68
2022-07-31T04:44:47.356Z,58.02
2022-07-31T04:47:15.086Z,56.50
2022-07-31T04:49:43.067Z,58.04
2022-07-31T04:52:10.825Z,59.79
2022-07-31T04:54:39.174Z,61.97
2022-07-31T04:57:07.224Z,65.69
2022-07-31T05:00:00.598Z,63.66
2022-07-31T05:02:23.196Z,57.71
2022-07-31T05:04:56.726Z,56.53
2022-07-31T05:07:27.709Z,58.01
2022-07-31T05:09:58.852Z,59.88
2022-07-31T05:12:27.232Z,61.30
2022-07-31T05:14:55.038Z,65.26
2022-07-31T05:17:22.928Z,64.36
2022-07-31T05:19:50.753Z,58.87
2022-07-31T05:22:18.927Z,57.16
2022-07-31T05:24:46.811Z,58.20
2022-07-31T05:27:14.695Z,59.90
2022-07-31T05:29:42.601Z,61.64
2022-07-31T05:32:10.684Z,65.68
2022-07-31T05:34:38.599Z,63.99
2022-07-31T05:37:06.507Z,60.25
2022-07-31T05:39:34.337Z,56.00
2022-07-31T05:42:02.465Z,54.81
2022-07-31T05:44:30.401Z,56.29
2022-07-31T05:49:29.001Z,59.95
2022-07-31T05:51:56.887Z,61.25
2022-07-31T05:54:24.704Z,65.23
2022-07-31T05:56:52.615Z,64.18
2022-07-31T05:59:20.467Z,58.22
2022-07-31T06:01:48.255Z,56.61
2022-07-31T06:04:16.252Z,57.99
2022-07-31T06:06:43.954Z,60.56
2022-07-31T06:09:11.847Z,62.45
2022-07-31T06:11:39.677Z,65.14
2022-07-31T06:14:07.407Z,61.99
2022-07-31T06:16:35.245Z,56.09
2022-07-31T06:19:03.189Z,56.02
2022-07-31T06:21:31.122Z,56.65
2022-07-31T06:23:58.927Z,58.66
2022-07-31T06:26:26.836Z,60.72
2022-07-31T06:28:55.587Z,64.01
2022-07-31T06:31:23.696Z,62.53
2022-07-31T06:33:51.508Z,56.82
2022-07-31T06:36:21.027Z,56.11
2022-07-31T06:38:48.834Z,57.61
2022-07-31T06:41:36.604Z,58.85
2022-07-31T06:44:05.052Z,60.31
2022-07-31T06:46:32.811Z,64.38
2022-07-31T06:49:02.627Z,62.99
2022-07-31T06:51:32.605Z,58.13
2022-07-31T06:54:01.868Z,57.10
2022-07-31T06:56:30.919Z,58.06
2022-07-31T06:58:58.683Z,61.67
2022-07-31T07:01:26.747Z,62.99
2022-07-31T07:03:55.232Z,57.63
2022-07-31T07:06:23.652Z,58.07
2022-07-31T07:08:52.507Z,59.05
2022-07-31T07:11:21.415Z,60.31
2022-07-31T07:13:49.704Z,61.43
2022-07-31T07:16:17.589Z,63.92
2022-07-31T07:18:45.335Z,62.27
2022-07-31T07:21:13.196Z,56.21
2022-07-31T07:23:41.362Z,55.85
2022-07-31T07:26:09.379Z,56.33
2022-07-31T07:28:37.437Z,58.56
2022-07-31T07:31:06.097Z,59.33
2022-07-31T07:33:40.651Z,60.85
2022-07-31T07:36:22.320Z,62.65
2022-07-31T07:38:55.177Z,62.91
2022-07-31T07:41:25.184Z,57.96
2022-07-31T07:43:54.034Z,55.13
2022-07-31T07:46:22.935Z,55.77
2022-07-31T07:48:52.619Z,57.16
2022-07-31T07:51:20.988Z,58.86
2022-07-31T07:53:48.859Z,60.15
2022-07-31T07:56:17.516Z,61.34
2022-07-31T07:58:45.313Z,61.29
2022-07-31T08:01:13.259Z,60.52
2022-07-31T08:03:49.099Z,57.74
2022-07-31T08:06:21.665Z,59.09
2022-07-31T08:08:49.838Z,60.64
2022-07-31T08:11:18.056Z,61.16
2022-07-31T08:13:50.611Z,62.21
2022-07-31T08:16:20.431Z,63.30
2022-07-31T08:18:49.547Z,58.81
2022-07-31T08:21:17.826Z,56.91
2022-07-31T08:23:45.802Z,59.07
2022-07-31T08:26:14.045Z,60.56
2022-07-31T08:28:50.790Z,61.37
2022-07-31T08:31:20.133Z,64.27
2022-07-31T08:33:48.017Z,61.67
2022-07-31T08:36:16.624Z,56.66
2022-07-31T08:38:44.431Z,55.87
2022-07-31T08:41:14.790Z,57.07
2022-07-31T08:44:02.331Z,58.18
2022-07-31T08:46:37.520Z,59.07
2022-07-31T08:49:07.782Z,62.05
2022-07-31T08:52:00.868Z,61.05
2022-07-31T08:54:27.907Z,56.30
2022-07-31T08:56:55.799Z,56.25
2022-07-31T08:59:23.583Z,58.56
2022-07-31T09:01:51.603Z,58.85
2022-07-31T09:04:19.441Z,60.69
2022-07-31T09:06:47.161Z,61.16
2022-07-31T09:09:16.733Z,62.42
2022-07-31T09:11:49.875Z,61.93
2022-07-31T09:14:30.128Z,56.13
2022-07-31T09:16:58.184Z,55.59
2022-07-31T09:19:54.163Z,56.86
2022-07-31T09:22:24.303Z,57.89
2022-07-31T09:24:53.325Z,59.44
2022-07-31T09:27:28.818Z,59.36
2022-07-31T09:29:57.466Z,61.44
2022-07-31T09:32:25.176Z,58.16
2022-07-31T09:34:52.893Z,56.97
2022-07-31T09:37:25.332Z,58.07
2022-07-31T09:39:54.853Z,58.57
2022-07-31T09:42:36.653Z,58.84
2022-07-31T09:45:20.848Z,59.10
2022-07-31T09:48:03.020Z,60.20
2022-07-31T09:50:31.043Z,60.22
2022-07-31T09:53:00.896Z,60.80
2022-07-31T09:55:29.049Z,61.65
2022-07-31T09:57:59.301Z,62.31
2022-07-31T10:00:27.988Z,58.11
2022-07-31T10:02:57.387Z,57.34
2022-07-31T10:05:27.527Z,55.54
2022-07-31T10:08:00.452Z,56.27
2022-07-31T10:10:30.392Z,55.77
2022-07-31T10:13:02.468Z,56.01
2022-07-31T10:15:32.372Z,55.75
2022-07-31T10:18:02.296Z,56.16
2022-07-31T10:20:32.915Z,56.75
2022-07-31T10:23:09.315Z,56.35
2022-07-31T10:25:53.552Z,56.64
2022-07-31T10:28:22.275Z,57.00
2022-07-31T10:30:50.817Z,57.06
2022-07-31T10:33:42.313Z,56.92
2022-07-31T10:36:19.973Z,57.25
2022-07-31T10:39:08.701Z,57.31
2022-07-31T10:41:36.577Z,58.73
2022-07-31T10:44:22.867Z,57.66
2022-07-31T10:46:50.671Z,57.24
2022-07-31T10:49:18.779Z,56.43
2022-07-31T10:51:51.202Z,57.09
2022-07-31T10:54:18.999Z,57.03
2022-07-31T10:56:48.281Z,56.68
2022-07-31T10:59:16.259Z,56.86
2022-07-31T11:01:52.490Z,57.99
2022-07-31T11:04:34.703Z,56.65
2022-07-31T11:07:02.677Z,55.99
2022-07-31T11:09:30.933Z,55.43
2022-07-31T11:11:58.778Z,55.66
2022-07-31T11:14:39.044Z,54.42
2022-07-31T11:17:07.336Z,54.78
2022-07-31T11:19:43.187Z,53.36
2022-07-31T11:22:31.864Z,55.45
2022-07-31T11:25:01.132Z,51.96
2022-07-31T11:27:33.079Z,53.44
2022-07-31T11:30:13.043Z,53.12
2022-07-31T11:32:47.560Z,54.41
2022-07-31T11:35:33.365Z,52.96
2022-07-31T11:38:01.322Z,53.02
2022-07-31T11:40:29.467Z,50.04
2022-07-31T11:45:52.205Z,50.91
2022-07-31T11:48:21.467Z,49.96
2022-07-31T11:50:50.552Z,50.22
2022-07-31T11:53:19.662Z,50.44
2022-07-31T11:55:54.018Z,50.76
2022-07-31T11:58:23.706Z,49.35
2022-07-31T12:01:02.710Z,49.67
2022-07-31T12:03:38.964Z,50.80
2022-07-31T12:06:08.642Z,49.99
2022-07-31T12:08:39.918Z,50.38
2022-07-31T12:11:09.523Z,51.36
2022-07-31T12:13:39.053Z,50.36
2022-07-31T12:16:11.333Z,49.32
2022-07-31T12:18:51.162Z,48.79
2022-07-31T12:21:20.199Z,49.33
2022-07-31T12:23:51.380Z,49.49
2022-07-31T12:26:32.985Z,47.23
2022-07-31T12:29:09.756Z,48.14
2022-07-31T12:32:04.804Z,48.29
2022-07-31T12:34:40.739Z,49.28
2022-07-31T12:37:09.541Z,49.21
2022-07-31T12:39:53.792Z,49.31
2022-07-31T12:42:27.749Z,49.20
2022-07-31T12:45:19.996Z,48.80
2022-07-31T12:47:54.068Z,49.82
2022-07-31T12:50:24.373Z,48.96
2022-07-31T12:52:52.764Z,47.92
2022-07-31T12:55:21.057Z,47.16
2022-07-31T12:57:51.802Z,47.12
2022-07-31T13:00:23.335Z,48.13
2022-07-31T13:02:56.627Z,47.87
2022-07-31T13:05:25.114Z,46.75
2022-07-31T13:07:53.975Z,46.60
2022-07-31T13:10:24.950Z,47.04
2022-07-31T13:13:00.448Z,48.23
2022-07-31T13:15:31.048Z,48.64
2022-07-31T13:18:04.858Z,46.11
2022-07-31T13:20:32.998Z,45.95
2022-07-31T13:23:02.498Z,47.19
2022-07-31T13:25:30.957Z,47.34
2022-07-31T13:27:59.482Z,48.34
2022-07-31T13:30:28.377Z,47.37
2022-07-31T13:32:56.442Z,45.94
2022-07-31T13:35:28.555Z,45.38
2022-07-31T13:37:57.419Z,44.78
2022-07-31T13:40:44.852Z,43.20
2022-07-31T13:43:13.335Z,43.98
2022-07-31T13:45:41.070Z,44.95
2022-07-31T13:48:09.843Z,45.17
2022-07-31T13:50:39.997Z,44.73
2022-07-31T13:53:09.031Z,41.68
2022-07-31T13:55:37.651Z,40.07
2022-07-31T13:58:05.762Z,39.85
2022-07-31T14:00:33.517Z,41.65
2022-07-31T14:03:01.447Z,42.59
2022-07-31T14:05:29.221Z,41.19
2022-07-31T14:08:03.230Z,41.32
2022-07-31T14:10:48.463Z,39.97
2022-07-31T14:13:19.236Z,42.56
2022-07-31T14:15:47.860Z,41.46
2022-07-31T14:18:15.815Z,39.46
2022-07-31T14:20:43.633Z,39.26
2022-07-31T14:23:11.503Z,38.70
2022-07-31T14:25:40.525Z,39.39
2022-07-31T14:28:09.922Z,40.06
2022-07-31T14:30:37.926Z,39.67
2022-07-31T14:33:05.767Z,39.96
2022-07-31T14:35:33.869Z,39.19
2022-07-31T14:38:04.257Z,39.43
2022-07-31T14:40:32.466Z,39.01
2022-07-31T14:43:00.193Z,39.53
2022-07-31T14:45:28.291Z,38.36
2022-07-31T14:47:56.409Z,38.58
2022-07-31T14:50:24.535Z,38.53
2022-07-31T14:52:52.458Z,38.58
2022-07-31T14:55:21.087Z,39.81
2022-07-31T14:57:49.195Z,38.94
2022-07-31T15:00:17.057Z,39.01
2022-07-31T15:02:45.511Z,38.13
2022-07-31T15:06:40.763Z,38.43
2022-07-31T15:08:02.645Z,37.05
2022-07-31T15:10:32.139Z,37.13
2022-07-31T15:12:59.971Z,37.61
2022-07-31T15:15:28.623Z,38.31
2022-07-31T15:17:56.904Z,37.55
2022-07-31T15:20:32.769Z,36.88
2022-07-31T15:23:02.035Z,37.03
2022-07-31T15:25:30.700Z,37.21
2022-07-31T15:27:58.488Z,37.61
2022-07-31T15:30:26.237Z,37.62
2022-07-31T15:32:54.083Z,36.74
2022-07-31T15:35:21.761Z,37.25
2022-07-31T15:37:52.654Z,37.29
2022-07-31T15:40:20.411Z,37.47
2022-07-31T15:42:49.189Z,38.27
2022-07-31T15:45:19.025Z,37.15
2022-07-31T15:47:48.484Z,37.01
2022-07-31T15:50:20.439Z,37.39
2022-07-31T15:52:49.779Z,37.44
2022-07-31T15:55:18.274Z,36.24
2022-07-31T15:57:46.848Z,35.55
2022-07-31T16:00:15.250Z,35.45
2022-07-31T16:02:45.408Z,35.18
2022-07-31T16:05:21.567Z,35.75
2022-07-31T16:08:28.601Z,36.32
2022-07-31T16:10:54.645Z,36.86
2022-07-31T16:13:24.836Z,36.73
2022-07-31T16:15:53.878Z,36.77
2022-07-31T16:18:21.889Z,36.13
2022-07-31T16:20:50.147Z,35.71
2022-07-31T16:23:18.005Z,36.29
2022-07-31T16:25:46.226Z,36.44
2022-07-31T16:28:15.158Z,36.06
2022-07-31T16:30:43.909Z,35.82
2022-07-31T16:33:12.134Z,35.72
2022-07-31T16:35:39.871Z,36.38
2022-07-31T16:38:08.349Z,36.08
2022-07-31T16:40:36.138Z,36.15
2022-07-31T16:43:49.365Z,36.22
2022-07-31T16:45:55.166Z,35.97
2022-07-31T16:48:23.724Z,36.03
2022-07-31T16:50:53.472Z,35.48
2022-07-31T16:54:14.210Z,35.72
2022-07-31T16:56:16.438Z,35.81
2022-07-31T16:58:44.539Z,35.99
2022-07-31T17:01:58.916Z,36.45
2022-07-31T17:04:03.986Z,36.48
2022-07-31T17:06:38.414Z,36.45
2022-07-31T17:09:17.480Z,36.64
2022-07-31T17:11:48.845Z,36.83
2022-07-31T17:14:18.890Z,37.31
2022-07-31T17:16:49.176Z,37.20
2022-07-31T17:19:42.999Z,37.27
2022-07-31T17:22:07.615Z,37.75
2022-07-31T17:24:37.276Z,39.33
2022-07-31T17:27:08.060Z,40.62
2022-07-31T17:29:37.963Z,40.75
2022-07-31T17:32:06.220Z,41.36
2022-07-31T17:34:35.579Z,41.83
2022-07-31T17:37:04.750Z,42.01
2022-07-31T17:39:33.155Z,42.38
2022-07-31T17:42:01.033Z,42.47
2022-07-31T17:44:28.780Z,42.68
2022-07-31T17:46:57.991Z,43.07
2022-07-31T17:49:28.144Z,43.26
2022-07-31T17:51:59.889Z,43.42
2022-07-31T17:54:30.789Z,43.40
2022-07-31T17:56:59.721Z,43.72
2022-07-31T17:59:28.136Z,43.83
2022-07-31T18:02:00.471Z,44.34
2022-07-31T18:04:34.146Z,44.59
2022-07-31T18:07:04.453Z,44.70
2022-07-31T18:09:33.204Z,44.94
2022-07-31T18:12:01.118Z,45.22
2022-07-31T18:14:28.947Z,45.49
2022-07-31T18:16:56.715Z,45.68
2022-07-31T18:19:24.631Z,46.11
2022-07-31T18:21:53.410Z,46.53
2022-07-31T18:24:22.544Z,47.01
2022-07-31T18:26:51.892Z,47.19
2022-07-31T18:29:20.268Z,47.82
2022-07-31T18:31:48.551Z,48.39
2022-07-31T18:34:16.504Z,48.51
2022-07-31T18:36:44.691Z,48.91
2022-07-31T18:39:12.458Z,49.55
2022-07-31T18:41:43.493Z,49.82
2022-07-31T18:44:13.463Z,50.06
2022-07-31T18:46:41.280Z,50.80
2022-07-31T18:49:09.380Z,51.41
2022-07-31T18:51:56.948Z,51.94
2022-07-31T18:54:24.983Z,53.21
2022-07-31T18:56:52.665Z,53.10
2022-07-31T18:59:20.715Z,53.20
2022-07-31T19:01:48.554Z,53.30
2022-07-31T19:04:16.250Z,53.98
2022-07-31T19:06:44.951Z,53.71
2022-07-31T19:09:12.663Z,54.21
2022-07-31T19:11:40.911Z,54.89
2022-07-31T19:14:18.478Z,54.98
2022-07-31T19:16:46.248Z,55.97
2022-07-31T19:19:17.960Z,56.15
2022-07-31T19:21:45.646Z,56.60
2022-07-31T19:24:13.562Z,56.77
2022-07-31T19:26:41.222Z,57.02
2022-07-31T19:29:09.029Z,57.31
2022-07-31T19:31:37.632Z,57.66
2022-07-31T19:34:05.342Z,57.43
2022-07-31T19:36:33.166Z,57.45
2022-07-31T19:39:01.138Z,58.62
2022-07-31T19:41:29.023Z,59.18
2022-07-31T19:43:56.824Z,59.99
2022-07-31T19:46:24.740Z,60.85
2022-07-31T19:48:52.615Z,64.55
2022-07-31T19:51:20.564Z,62.68
2022-07-31T19:53:48.573Z,55.20
2022-07-31T19:56:20.826Z,52.74
2022-07-31T19:58:50.161Z,52.82
2022-07-31T20:01:21.920Z,53.43
2022-07-31T20:03:50.549Z,53.59
2022-07-31T20:06:18.522Z,54.59
2022-07-31T20:08:46.275Z,55.90
2022-07-31T20:11:14.008Z,56.84
2022-07-31T20:13:41.825Z,57.33
2022-07-31T20:16:10.031Z,57.99
2022-07-31T20:18:38.124Z,58.52
2022-07-31T20:21:09.012Z,58.59
2022-07-31T20:23:39.178Z,59.09
2022-07-31T20:26:09.197Z,59.63
2022-07-31T20:28:40.396Z,60.12
2022-07-31T20:31:15.890Z,60.29
2022-07-31T20:33:57.033Z,60.92
2022-07-31T20:36:28.443Z,60.76
2022-07-31T20:38:58.116Z,61.37
2022-07-31T20:41:27.484Z,61.52
2022-07-31T20:43:55.431Z,65.22
2022-07-31T20:46:23.401Z,63.52
2022-07-31T20:48:51.224Z,56.41
2022-07-31T20:51:21.919Z,54.59
2022-07-31T20:53:51.577Z,55.40
2022-07-31T20:56:19.616Z,56.18
2022-07-31T20:58:51.642Z,56.75
2022-07-31T21:01:23.308Z,57.85
2022-07-31T21:03:51.560Z,58.54
2022-07-31T21:06:21.043Z,58.69
2022-07-31T21:08:49.230Z,58.59
2022-07-31T21:11:16.969Z,59.44
2022-07-31T21:13:45.523Z,60.16
2022-07-31T21:16:13.441Z,61.29
2022-07-31T21:18:43.315Z,64.99
2022-07-31T21:21:11.688Z,63.82
2022-07-31T21:23:39.764Z,56.72
2022-07-31T21:26:08.320Z,54.08
2022-07-31T21:28:36.967Z,54.32
2022-07-31T21:31:05.464Z,55.46
2022-07-31T21:33:33.506Z,56.14
2022-07-31T21:36:02.059Z,57.22
2022-07-31T21:38:30.062Z,57.92
2022-07-31T21:40:58.009Z,58.65
2022-07-31T21:43:30.489Z,59.56
2022-07-31T21:46:09.409Z,60.63
2022-07-31T21:48:43.932Z,61.04
2022-07-31T21:51:14.275Z,61.32
2022-07-31T21:53:42.357Z,65.11
2022-07-31T21:56:12.048Z,63.80
2022-07-31T21:58:39.753Z,57.12
2022-07-31T22:01:07.496Z,54.68
2022-07-31T22:03:35.264Z,55.55
2022-07-31T22:06:26.030Z,55.98
2022-07-31T22:08:54.058Z,57.22
2022-07-31T22:11:21.759Z,58.43
2022-07-31T22:13:49.544Z,59.52
2022-07-31T22:16:17.266Z,60.05
2022-07-31T22:18:45.386Z,60.36
2022-07-31T22:21:13.478Z,61.04
2022-07-31T22:23:41.709Z,61.39
2022-07-31T22:26:10.656Z,65.64
2022-07-31T22:28:39.735Z,64.37
2022-07-31T22:31:10.382Z,57.83
2022-07-31T22:33:38.321Z,55.65
2022-07-31T22:36:09.472Z,56.08
2022-07-31T22:38:38.270Z,57.02
2022-07-31T22:41:06.638Z,57.71
2022-07-31T22:44:10.390Z,58.69
2022-07-31T22:46:22.886Z,59.80
2022-07-31T22:48:51.766Z,60.72
2022-07-31T22:51:19.553Z,61.54
2022-07-31T22:53:48.824Z,64.93
2022-07-31T22:56:18.196Z,63.70
2022-07-31T22:58:46.040Z,57.10
2022-07-31T23:01:13.854Z,55.01
2022-07-31T23:03:41.795Z,55.85
2022-07-31T23:06:31.337Z,57.26
2022-07-31T23:08:57.729Z,58.17
2022-07-31T23:11:25.600Z,58.94
2022-07-31T23:13:53.302Z,59.59
2022-07-31T23:16:21.079Z,60.73
2022-07-31T23:18:50.229Z,61.62
2022-07-31T23:21:18.944Z,65.73
2022-07-31T23:23:49.074Z,63.99
2022-07-31T23:26:24.325Z,56.74
2022-07-31T23:28:53.955Z,54.53
2022-07-31T23:31:22.700Z,55.13
2022-07-31T23:33:51.236Z,56.53
2022-07-31T23:36:19.552Z,57.87
2022-07-31T23:38:47.502Z,58.68
2022-07-31T23:41:15.664Z,59.64
2022-07-31T23:43:54.319Z,60.67
2022-07-31T23:46:26.554Z,61.46
2022-07-31T23:48:55.671Z,65.93
2022-07-31T23:51:23.693Z,64.05
2022-07-31T23:53:51.705Z,57.05
2022-07-31T23:56:19.908Z,54.60
2022-07-31T23:58:47.845Z,55.35
